Time;durP1;ratioP1;P1;durP2;ratioP2;P2;SDS_P1;SDS_P2;PMS_P1;PMS_P2;Temp;Humidity;BMP_temperature;BMP_pressure;BME280_temperature;BME280_humidity;BME280_pressure;Samples;Min_cycle;Max_cycle;Signal;HPM_P1;HPM_P2
2021/05/05 00:01:39;;;;;;;4.87;1.60;;;11.30;90.40;;;;;;5009446;28;20705;-53
2021/05/05 00:04:06;;;;;;;2.40;1.27;;;11.30;90.50;;;;;;5010030;28;21292;-53
2021/05/05 00:06:32;;;;;;;2.77;1.90;;;11.30;90.50;;;;;;5010126;28;20627;-53
2021/05/05 00:08:59;;;;;;;3.70;1.67;;;11.30;90.60;;;;;;5009606;28;20627;-52
2021/05/05 00:11:26;;;;;;;1.97;1.60;;;11.20;90.60;;;;;;5009394;28;20710;-53
2021/05/05 00:13:53;;;;;;;2.10;1.80;;;11.20;90.60;;;;;;5010024;28;20632;-53
2021/05/05 00:16:20;;;;;;;3.63;1.70;;;11.20;90.70;;;;;;5010140;28;20627;-53
2021/05/05 00:18:47;;;;;;;7.70;2.90;;;11.20;90.80;;;;;;5009664;28;20686;-53
2021/05/05 00:21:14;;;;;;;2.53;1.30;;;11.30;90.80;;;;;;5009519;28;20643;-53
2021/05/05 00:23:40;;;;;;;4.70;2.40;;;11.30;90.80;;;;;;5009826;28;20974;-53
2021/05/05 00:26:07;;;;;;;4.70;2.67;;;11.20;90.80;;;;;;5009906;28;20632;-53
2021/05/05 00:28:34;;;;;;;1.47;1.30;;;11.20;90.90;;;;;;5009773;28;20935;-53
2021/05/05 00:31:01;;;;;;;1.90;1.73;;;11.20;90.90;;;;;;5009454;28;20652;-53
2021/05/05 00:33:28;;;;;;;2.60;2.13;;;11.30;90.90;;;;;;5007837;28;20686;-53
2021/05/05 00:35:55;;;;;;;5.83;2.43;;;11.30;90.90;;;;;;5009570;28;20682;-52
2021/05/05 00:38:22;;;;;;;2.30;1.40;;;11.30;90.80;;;;;;5009332;28;21166;-52
2021/05/05 00:40:49;;;;;;;2.50;2.27;;;11.20;90.80;;;;;;5009795;28;20635;-53
2021/05/05 00:43:15;;;;;;;2.03;1.83;;;11.20;90.80;;;;;;5052629;23;20746;-51
2021/05/05 00:45:42;;;;;;;3.53;1.97;;;11.20;90.70;;;;;;5049808;28;20673;-51
2021/05/05 00:48:09;;;;;;;2.00;1.60;;;11.30;90.80;;;;;;5035099;28;20615;-51
2021/05/05 00:50:36;;;;;;;2.27;1.70;;;11.30;90.80;;;;;;5034916;28;20752;-51
2021/05/05 00:53:03;;;;;;;2.63;1.73;;;11.30;90.70;;;;;;5034810;28;21032;-52
2021/05/05 00:55:30;;;;;;;4.90;1.93;;;11.20;90.80;;;;;;5026007;28;20628;-53
2021/05/05 00:57:57;;;;;;;4.13;1.37;;;11.20;91.00;;;;;;5014685;28;20779;-53
2021/05/05 01:00:25;;;;;;;4.77;1.93;;;11.20;91.30;;;;;;5019927;28;20677;-54
2021/05/05 01:02:52;;;;;;;4.40;3.03;;;11.10;91.50;;;;;;5015417;28;20722;-51
2021/05/05 01:05:18;;;;;;;1.73;1.53;;;11.20;91.50;;;;;;5014886;28;20997;-51
2021/05/05 01:07:46;;;;;;;2.43;1.80;;;11.20;91.40;;;;;;5019242;28;20635;-51
2021/05/05 01:10:13;;;;;;;4.77;2.10;;;11.20;91.20;;;;;;5034106;28;20627;-51
2021/05/05 01:12:40;;;;;;;4.30;1.80;;;11.10;91.20;;;;;;5034122;28;20704;-51
2021/05/05 01:15:07;;;;;;;3.57;1.97;;;11.10;91.20;;;;;;5033784;28;20642;-51
2021/05/05 01:17:35;;;;;;;2.47;1.90;;;11.10;91.20;;;;;;5033727;28;20619;-52
2021/05/05 01:20:03;;;;;;;5.50;1.90;;;11.10;90.90;;;;;;5034503;28;21247;-51
2021/05/05 01:22:30;;;;;;;3.00;1.97;;;11.10;91.10;;;;;;5034476;28;20720;-52
2021/05/05 01:24:57;;;;;;;6.20;2.23;;;11.10;90.80;;;;;;5034246;28;20634;-51
2021/05/05 01:27:24;;;;;;;5.03;1.83;;;11.00;90.90;;;;;;5033827;28;20676;-51
2021/05/05 01:29:51;;;;;;;2.47;2.27;;;11.00;91.00;;;;;;5031910;28;20638;-51
2021/05/05 01:32:17;;;;;;;5.80;2.33;;;11.00;91.00;;;;;;5033942;28;20724;-52
2021/05/05 01:34:44;;;;;;;2.30;1.73;;;11.00;90.90;;;;;;5034147;28;20965;-53
2021/05/05 01:37:11;;;;;;;2.67;1.90;;;11.00;90.70;;;;;;5033669;28;20669;-53
2021/05/05 01:39:39;;;;;;;3.70;2.63;;;11.00;90.80;;;;;;5030128;28;20688;-53
2021/05/05 01:42:06;;;;;;;7.03;2.47;;;11.00;90.70;;;;;;5033713;28;20686;-52
2021/05/05 01:44:34;;;;;;;2.20;2.00;;;11.00;90.80;;;;;;5033794;28;20626;-52
2021/05/05 01:47:00;;;;;;;2.20;1.67;;;11.00;90.70;;;;;;5033702;28;20654;-53
2021/05/05 01:49:27;;;;;;;2.83;2.20;;;11.00;90.70;;;;;;5032650;28;21233;-53
2021/05/05 01:51:55;;;;;;;4.80;2.67;;;11.00;90.40;;;;;;5033781;28;20717;-51
2021/05/05 01:54:22;;;;;;;4.63;1.57;;;10.90;90.30;;;;;;5032968;28;20661;-51
2021/05/05 01:56:50;;;;;;;4.80;2.37;;;10.80;89.90;;;;;;5018588;28;20689;-51
2021/05/05 01:59:17;;;;;;;2.30;2.03;;;10.70;90.10;;;;;;5023021;28;20714;-51
2021/05/05 02:01:44;;;;;;;3.60;2.40;;;10.70;90.20;;;;;;5033848;28;21175;-52
2021/05/05 02:04:11;;;;;;;2.87;2.10;;;10.80;89.70;;;;;;5033555;28;20634;-51
2021/05/05 02:06:37;;;;;;;3.73;1.87;;;10.80;89.50;;;;;;5033359;28;21233;-51
2021/05/05 02:09:07;;;;;;;5.10;2.33;;;10.80;89.20;;;;;;5016841;28;20964;-51
2021/05/05 02:11:34;;;;;;;3.80;1.83;;;10.90;88.80;;;;;;5014026;28;20659;-52
2021/05/05 02:14:01;;;;;;;6.60;1.90;;;10.80;87.80;;;;;;5013745;28;21331;-52
2021/05/05 02:16:28;;;;;;;3.23;2.17;;;10.80;87.10;;;;;;5021401;28;20946;-51
2021/05/05 02:18:55;;;;;;;4.50;2.00;;;10.80;86.70;;;;;;5033265;28;20627;-51
2021/05/05 02:21:22;;;;;;;3.77;1.60;;;10.80;86.10;;;;;;5032692;28;21176;-51
2021/05/05 02:23:48;;;;;;;3.70;1.97;;;10.80;84.30;;;;;;5033597;28;20650;-52
2021/05/05 02:26:15;;;;;;;3.63;2.00;;;10.90;84.10;;;;;;5033332;28;20623;-51
2021/05/05 02:28:42;;;;;;;4.70;2.20;;;10.90;83.60;;;;;;5033175;28;20680;-50
2021/05/05 02:31:10;;;;;;;3.17;1.90;;;10.90;83.70;;;;;;5033017;28;20682;-50
2021/05/05 02:33:37;;;;;;;5.57;1.57;;;10.90;84.40;;;;;;5032900;28;20708;-51
2021/05/05 02:36:04;;;;;;;4.50;2.77;;;10.90;84.70;;;;;;5032711;28;20700;-50
2021/05/05 02:38:31;;;;;;;9.07;2.80;;;10.90;85.30;;;;;;5032448;28;20623;-51
2021/05/05 02:40:57;;;;;;;5.17;2.50;;;10.90;86.00;;;;;;5032298;28;20742;-51
2021/05/05 02:43:24;;;;;;;3.60;2.43;;;10.90;86.50;;;;;;5032636;28;21003;-50
2021/05/05 02:45:51;;;;;;;7.10;2.83;;;10.80;86.90;;;;;;5032703;28;20689;-51
2021/05/05 02:48:19;;;;;;;3.20;2.47;;;10.70;87.30;;;;;;5032685;28;20666;-51
2021/05/05 02:50:45;;;;;;;4.83;2.27;;;10.70;87.60;;;;;;5032971;28;21281;-50
2021/05/05 02:53:12;;;;;;;3.60;2.00;;;10.80;87.50;;;;;;5032880;28;21270;-51
2021/05/05 02:55:39;;;;;;;5.13;2.30;;;10.70;85.80;;;;;;5032339;28;20635;-52
2021/05/05 02:58:06;;;;;;;3.20;1.90;;;10.70;85.30;;;;;;5032534;28;20708;-50
2021/05/05 03:00:32;;;;;;;8.63;1.90;;;10.60;84.70;;;;;;5031308;28;20686;-52
2021/05/05 03:02:59;;;;;;;2.77;1.53;;;10.60;84.60;;;;;;5032757;28;20659;-51
2021/05/05 03:05:27;;;;;;;3.03;1.77;;;10.60;84.50;;;;;;5019608;28;20643;-51
2021/05/05 03:07:54;;;;;;;2.80;1.67;;;10.60;84.20;;;;;;5030356;28;20631;-50
2021/05/05 03:10:20;;;;;;;2.33;1.70;;;10.60;83.90;;;;;;5032847;28;20664;-50
2021/05/05 03:12:47;;;;;;;3.90;2.17;;;10.60;83.90;;;;;;5032101;28;20721;-51
2021/05/05 03:15:14;;;;;;;2.30;1.20;;;10.50;83.40;;;;;;5032318;28;20631;-53
2021/05/05 03:17:41;;;;;;;3.63;1.80;;;10.50;82.90;;;;;;5030516;28;20623;-53
2021/05/05 03:20:09;;;;;;;6.20;3.10;;;10.50;82.70;;;;;;5032437;28;20685;-51
2021/05/05 03:22:37;;;;;;;6.80;2.67;;;10.50;82.20;;;;;;5031920;28;20662;-51
2021/05/05 03:25:04;;;;;;;1.63;1.00;;;10.50;81.60;;;;;;5030877;28;20627;-51
2021/05/05 03:27:30;;;;;;;2.57;1.43;;;10.50;81.00;;;;;;5026206;28;20658;-51
2021/05/05 03:29:57;;;;;;;1.80;1.30;;;10.40;80.50;;;;;;5031720;28;20623;-51
2021/05/05 03:32:24;;;;;;;3.07;2.13;;;10.40;80.90;;;;;;5031293;28;20670;-51
2021/05/05 03:34:51;;;;;;;2.97;1.50;;;10.40;80.20;;;;;;5030641;28;20639;-50
2021/05/05 03:37:18;;;;;;;2.90;1.80;;;10.40;79.60;;;;;;5031267;28;20635;-51
2021/05/05 03:39:45;;;;;;;4.93;2.07;;;10.40;79.10;;;;;;5030066;28;20638;-51
2021/05/05 03:42:12;;;;;;;3.00;1.63;;;10.30;78.50;;;;;;5031426;28;20713;-51
2021/05/05 03:44:39;;;;;;;4.23;1.63;;;10.30;78.50;;;;;;5031590;28;20619;-53
2021/05/05 03:47:05;;;;;;;4.00;1.67;;;10.30;78.20;;;;;;5031645;28;20631;-53
2021/05/05 03:49:32;;;;;;;5.77;2.17;;;10.20;77.80;;;;;;5031438;28;20672;-53
2021/05/05 03:51:59;;;;;;;4.30;1.60;;;10.20;77.90;;;;;;5031438;28;20663;-53
2021/05/05 03:54:26;;;;;;;4.30;2.50;;;10.20;77.90;;;;;;5031479;28;20781;-52
2021/05/05 03:56:53;;;;;;;3.13;1.30;;;10.20;77.90;;;;;;5031390;28;20642;-52
2021/05/05 03:59:20;;;;;;;5.23;1.70;;;10.20;76.80;;;;;;5031146;28;20689;-52
2021/05/05 04:01:47;;;;;;;11.03;2.70;;;10.20;76.60;;;;;;5031558;28;20701;-52
2021/05/05 04:04:14;;;;;;;3.57;1.73;;;10.20;76.00;;;;;;5028187;28;20697;-52
2021/05/05 04:06:40;;;;;;;3.20;1.10;;;10.10;75.50;;;;;;5029295;28;20631;-51
2021/05/05 04:09:07;;;;;;;4.23;1.77;;;10.10;75.50;;;;;;5030882;28;20998;-52
2021/05/05 04:11:34;;;;;;;3.67;1.50;;;10.00;75.30;;;;;;5031451;28;20647;-52
2021/05/05 04:14:02;;;;;;;2.63;1.50;;;10.00;75.50;;;;;;5018016;28;20660;-51
2021/05/05 04:16:28;;;;;;;3.47;1.40;;;10.00;75.30;;;;;;5029862;28;21199;-52
2021/05/05 04:18:55;;;;;;;2.40;1.20;;;10.00;75.10;;;;;;5030963;28;21241;-52
2021/05/05 04:21:22;;;;;;;2.60;1.33;;;9.90;76.00;;;;;;5031214;28;20621;-50
2021/05/05 04:23:49;;;;;;;3.90;2.50;;;9.90;76.10;;;;;;5031018;28;20651;-50
2021/05/05 04:26:16;;;;;;;2.50;1.17;;;9.90;76.20;;;;;;5029478;28;20989;-50
2021/05/05 04:28:42;;;;;;;5.13;1.80;;;9.90;76.10;;;;;;5030765;28;20649;-50
2021/05/05 04:31:10;;;;;;;3.43;2.10;;;9.80;76.30;;;;;;5019438;28;20655;-51
2021/05/05 04:33:39;;;;;;;1.73;1.43;;;9.80;76.40;;;;;;5019103;28;20697;-52
2021/05/05 04:36:06;;;;;;;6.03;1.90;;;9.80;76.80;;;;;;5031168;28;20752;-52
2021/05/05 04:38:33;;;;;;;5.20;1.57;;;9.80;76.60;;;;;;5031048;28;20948;-51
2021/05/05 04:41:00;;;;;;;4.07;3.27;;;9.80;76.70;;;;;;5025845;28;20631;-51
2021/05/05 04:43:26;;;;;;;3.53;1.30;;;9.70;76.50;;;;;;5021134;28;20738;-54
2021/05/05 04:45:53;;;;;;;5.33;2.50;;;9.70;76.90;;;;;;5030613;28;20645;-52
2021/05/05 04:48:21;;;;;;;4.57;2.03;;;9.70;77.10;;;;;;5031019;28;20681;-52
2021/05/05 04:50:48;;;;;;;2.00;1.00;;;9.60;77.00;;;;;;5030942;28;20704;-53
2021/05/05 04:53:14;;;;;;;5.30;1.77;;;9.60;76.80;;;;;;5030487;28;20678;-53
2021/05/05 04:55:41;;;;;;;3.47;1.87;;;9.70;76.70;;;;;;5031330;28;20630;-52
2021/05/05 04:58:08;;;;;;;3.00;1.17;;;9.60;75.80;;;;;;5030642;28;20772;-52
2021/05/05 05:00:34;;;;;;;3.53;2.00;;;9.50;76.30;;;;;;5030882;28;20627;-54
2021/05/05 05:03:01;;;;;;;3.33;1.70;;;9.40;76.30;;;;;;5030539;28;20654;-54
2021/05/05 05:05:29;;;;;;;3.30;2.07;;;9.50;77.00;;;;;;5030673;28;20634;-53
2021/05/05 05:07:56;;;;;;;3.73;2.10;;;9.50;76.80;;;;;;5030354;28;20991;-54
2021/05/05 05:10:23;;;;;;;6.43;2.63;;;9.60;76.60;;;;;;5030540;28;20642;-54
2021/05/05 05:12:50;;;;;;;3.60;1.60;;;9.60;76.30;;;;;;5030445;28;21394;-52
2021/05/05 05:15:17;;;;;;;3.93;1.50;;;9.70;76.30;;;;;;5030637;28;20712;-52
2021/05/05 05:17:43;;;;;;;4.63;1.90;;;9.60;75.60;;;;;;5030353;28;20679;-52
2021/05/05 05:20:11;;;;;;;6.17;1.90;;;9.60;75.70;;;;;;5030413;28;20662;-52
2021/05/05 05:22:38;;;;;;;6.07;2.00;;;9.60;75.70;;;;;;5029701;28;21002;-54
2021/05/05 05:25:07;;;;;;;3.30;1.60;;;9.60;75.60;;;;;;5030542;28;20631;-52
2021/05/05 05:27:34;;;;;;;3.57;1.20;;;9.60;75.50;;;;;;5029512;28;20673;-50
2021/05/05 05:30:00;;;;;;;1.13;1.00;;;9.50;75.80;;;;;;5032885;28;20631;-50
2021/05/05 05:32:27;;;;;;;3.53;1.63;;;9.50;76.10;;;;;;5033465;28;20670;-51
2021/05/05 05:34:54;;;;;;;3.33;1.43;;;9.60;75.90;;;;;;5033199;28;20614;-51
2021/05/05 05:37:21;;;;;;;11.40;2.27;;;9.50;76.00;;;;;;5033608;28;20646;-51
2021/05/05 05:39:49;;;;;;;4.80;1.70;;;9.60;75.80;;;;;;5033625;28;21202;-50
2021/05/05 05:42:15;;;;;;;2.77;1.40;;;9.60;76.30;;;;;;5033629;28;20655;-50
2021/05/05 05:44:42;;;;;;;3.73;2.30;;;9.70;75.80;;;;;;5033908;28;20631;-51
2021/05/05 05:47:09;;;;;;;4.83;1.93;;;9.70;75.50;;;;;;5032923;28;20634;-51
2021/05/05 05:49:36;;;;;;;5.17;1.70;;;9.80;75.50;;;;;;5033101;28;20741;-52
2021/05/05 05:52:02;;;;;;;4.43;2.00;;;10.00;73.60;;;;;;5033058;28;21112;-51
2021/05/05 05:54:29;;;;;;;3.27;1.30;;;10.00;72.60;;;;;;5033251;28;20623;-51
2021/05/05 05:56:57;;;;;;;3.33;2.00;;;10.00;72.50;;;;;;5033783;28;21171;-51
2021/05/05 05:59:24;;;;;;;3.90;2.23;;;10.00;72.60;;;;;;5033169;28;20630;-50
2021/05/05 06:01:50;;;;;;;5.47;2.50;;;10.00;73.20;;;;;;5028582;28;20623;-51
2021/05/05 06:04:17;;;;;;;9.40;2.60;;;9.90;73.80;;;;;;5018011;28;20632;-54
2021/05/05 06:06:44;;;;;;;5.30;2.63;;;9.90;73.80;;;;;;5013714;28;20636;-52
2021/05/05 06:09:10;;;;;;;2.80;2.50;;;9.90;74.00;;;;;;5013134;28;20701;-52
2021/05/05 06:11:38;;;;;;;4.33;2.13;;;10.00;73.30;;;;;;5013360;28;20719;-52
2021/05/05 06:14:06;;;;;;;8.77;2.37;;;10.00;72.50;;;;;;5040966;28;20729;-51
2021/05/05 06:16:33;;;;;;;6.57;2.10;;;10.00;72.70;;;;;;5052888;28;21185;-54
2021/05/05 06:18:59;;;;;;;7.73;2.63;;;10.00;72.30;;;;;;5043890;28;20627;-54
2021/05/05 06:21:26;;;;;;;4.90;1.97;;;10.00;72.30;;;;;;5031682;28;20685;-53
2021/05/05 06:23:53;;;;;;;4.77;2.23;;;10.00;71.90;;;;;;5032551;28;21069;-53
2021/05/05 06:26:20;;;;;;;3.77;2.77;;;10.00;72.10;;;;;;5032784;28;20957;-53
2021/05/05 06:28:47;;;;;;;5.53;2.27;;;10.10;72.10;;;;;;5032274;28;20693;-51
2021/05/05 06:31:14;;;;;;;6.03;2.40;;;10.10;71.70;;;;;;5032252;28;21179;-53
2021/05/05 06:33:41;;;;;;;3.37;2.23;;;10.10;72.10;;;;;;5031450;28;21019;-52
2021/05/05 06:36:09;;;;;;;7.57;2.40;;;10.20;72.40;;;;;;5031250;28;20681;-51
2021/05/05 06:38:36;;;;;;;3.07;1.90;;;10.20;71.60;;;;;;5030854;28;20750;-52
2021/05/05 06:41:02;;;;;;;6.43;2.13;;;10.30;71.10;;;;;;5031923;28;21447;-51
2021/05/05 06:43:29;;;;;;;4.40;2.20;;;10.30;69.60;;;;;;5032349;28;20659;-51
2021/05/05 06:45:56;;;;;;;8.37;3.37;;;10.40;70.50;;;;;;5032328;28;20615;-53
2021/05/05 06:48:24;;;;;;;10.40;3.40;;;10.40;70.20;;;;;;5028429;28;20639;-50
2021/05/05 06:50:50;;;;;;;6.37;2.17;;;10.50;71.00;;;;;;5012615;28;20690;-50
2021/05/05 06:53:17;;;;;;;4.57;2.77;;;10.70;70.40;;;;;;5012377;28;20708;-51
2021/05/05 06:55:44;;;;;;;5.10;1.60;;;10.90;68.80;;;;;;5017848;28;20640;-51
2021/05/05 06:58:11;;;;;;;3.77;1.80;;;11.10;68.40;;;;;;5021543;28;20632;-51
2021/05/05 07:00:38;;;;;;;8.50;2.57;;;11.20;67.10;;;;;;5012563;28;20619;-52
2021/05/05 07:03:04;;;;;;;7.17;2.63;;;11.30;67.70;;;;;;5029664;28;20650;-51
2021/05/05 07:05:32;;;;;;;2.03;1.40;;;11.30;66.80;;;;;;5028350;28;20686;-51
2021/05/05 07:07:59;;;;;;;4.30;2.50;;;11.10;66.70;;;;;;5011859;28;20631;-51
2021/05/05 07:10:26;;;;;;;5.03;2.00;;;10.90;67.70;;;;;;5017135;28;20642;-51
2021/05/05 07:12:53;;;;;;;4.07;2.80;;;10.90;68.50;;;;;;5028455;28;20670;-51
2021/05/05 07:15:19;;;;;;;4.17;2.23;;;10.90;68.80;;;;;;5022807;28;20666;-53
2021/05/05 07:17:48;;;;;;;4.83;2.53;;;10.90;68.40;;;;;;5031931;28;21029;-51
2021/05/05 07:20:16;;;;;;;10.83;3.47;;;10.80;68.10;;;;;;5014810;28;20972;-51
2021/05/05 07:22:44;;;;;;;3.77;1.60;;;10.70;68.10;;;;;;5012015;28;20655;-51
2021/05/05 07:25:11;;;;;;;14.33;4.50;;;10.60;68.50;;;;;;5017127;28;21024;-52
2021/05/05 07:27:38;;;;;;;7.40;1.90;;;10.60;69.10;;;;;;5022554;28;20624;-52
2021/05/05 07:30:06;;;;;;;6.80;2.80;;;10.50;69.00;;;;;;5011839;28;20658;-53
2021/05/05 07:32:33;;;;;;;2.57;2.07;;;10.50;69.20;;;;;;5022239;28;20686;-52
2021/05/05 07:35:03;;;;;;;4.53;3.77;;;10.60;69.30;;;;;;5031394;28;21175;-52
2021/05/05 07:37:41;;;;;;;4.80;3.20;;;10.70;69.30;;;;;;5031715;28;20603;-52
2021/05/05 07:40:47;;;;;;;9.90;3.03;;;10.90;69.60;;;;;;5030850;28;20693;-53
2021/05/05 07:46:02;;;;;;;4.70;2.40;;;10.90;67.30;;;;;;5020444;28;20677;-52
2021/05/05 07:48:34;;;;;;;5.03;3.17;;;10.90;66.90;;;;;;5029591;28;20618;-52
2021/05/05 07:51:01;;;;;;;5.90;2.00;;;10.90;67.30;;;;;;5018844;28;20628;-53
2021/05/05 07:53:28;;;;;;;3.90;2.43;;;11.00;67.60;;;;;;5026101;28;20675;-50
2021/05/05 07:55:57;;;;;;;5.80;2.37;;;11.10;66.80;;;;;;5029397;28;20627;-51
2021/05/05 07:58:24;;;;;;;6.57;2.57;;;11.20;66.70;;;;;;5031001;28;20620;-50
2021/05/05 08:00:51;;;;;;;6.03;3.07;;;11.10;65.40;;;;;;5019407;28;20687;-51
2021/05/05 08:03:18;;;;;;;6.83;3.10;;;11.20;65.20;;;;;;5011172;28;20686;-50
2021/05/05 08:05:44;;;;;;;2.60;2.27;;;11.30;64.80;;;;;;5011920;28;21045;-50
2021/05/05 08:08:11;;;;;;;5.20;2.40;;;11.40;63.60;;;;;;5014644;28;21009;-52
2021/05/05 08:10:39;;;;;;;2.80;2.23;;;11.40;63.30;;;;;;5031190;28;20641;-51
2021/05/05 08:13:07;;;;;;;7.43;3.07;;;11.50;62.50;;;;;;5042853;28;20727;-51
2021/05/05 08:15:34;;;;;;;5.90;2.97;;;11.70;61.10;;;;;;5050780;28;20663;-50
2021/05/05 08:18:01;;;;;;;2.50;1.97;;;11.90;60.80;;;;;;5050729;28;20602;-51
2021/05/05 08:20:28;;;;;;;5.53;2.40;;;12.10;59.80;;;;;;5050780;28;20701;-50
2021/05/05 08:22:55;;;;;;;5.83;3.43;;;12.10;59.00;;;;;;5050791;28;20771;-50
2021/05/05 08:25:22;;;;;;;2.67;2.47;;;12.10;58.30;;;;;;5043898;28;21232;-51
2021/05/05 08:27:49;;;;;;;5.57;2.87;;;12.00;58.20;;;;;;5031277;28;20621;-52
2021/05/05 08:30:17;;;;;;;3.80;3.03;;;11.90;58.60;;;;;;5031364;28;20659;-50
2021/05/05 08:32:45;;;;;;;2.73;1.10;;;11.80;58.10;;;;;;5032574;28;20742;-53
2021/05/05 08:35:12;;;;;;;5.60;2.80;;;11.80;57.90;;;;;;5026864;28;20911;-51
2021/05/05 08:37:39;;;;;;;4.03;2.80;;;11.70;58.00;;;;;;5017848;28;20624;-51
2021/05/05 08:40:08;;;;;;;4.10;1.87;;;11.70;57.50;;;;;;5040887;28;20615;-51
2021/05/05 08:42:35;;;;;;;3.83;2.60;;;11.70;57.40;;;;;;5014789;28;20691;-53
2021/05/05 08:45:02;;;;;;;1.97;1.60;;;11.60;56.00;;;;;;5028703;28;20658;-52
2021/05/05 08:47:29;;;;;;;2.63;1.60;;;11.60;56.40;;;;;;5025931;28;20635;-53
2021/05/05 08:49:56;;;;;;;1.77;1.30;;;11.70;55.70;;;;;;5029827;28;20664;-53
2021/05/05 08:52:23;;;;;;;13.80;4.43;;;11.60;55.60;;;;;;5030414;28;20658;-55
2021/05/05 08:54:50;;;;;;;4.50;2.00;;;11.50;56.40;;;;;;5029553;28;21041;-53
2021/05/05 08:57:18;;;;;;;3.50;1.97;;;11.70;56.80;;;;;;5032799;28;21193;-53
2021/05/05 08:59:45;;;;;;;4.40;2.00;;;12.10;56.60;;;;;;5030983;28;20623;-52
2021/05/05 09:02:11;;;;;;;2.90;1.30;;;12.30;56.10;;;;;;5037528;28;20782;-54
2021/05/05 09:04:39;;;;;;;7.20;1.97;;;12.50;54.70;;;;;;5037887;28;21179;-53
2021/05/05 09:07:06;;;;;;;3.17;1.97;;;12.50;54.80;;;;;;5034027;28;20938;-52
2021/05/05 09:09:35;;;;;;;3.80;1.80;;;12.50;54.00;;;;;;5032502;28;20703;-51
2021/05/05 09:12:15;;;;;;;3.67;1.77;;;12.50;54.00;;;;;;5033940;28;20643;-52
2021/05/05 09:14:53;;;;;;;3.60;2.50;;;12.40;53.60;;;;;;5019097;28;20633;-53
2021/05/05 09:17:19;;;;;;;3.67;2.90;;;12.30;53.90;;;;;;5029988;28;20623;-52
2021/05/05 09:19:47;;;;;;;4.57;1.87;;;12.30;53.40;;;;;;5028542;28;20634;-52
2021/05/05 09:22:29;;;;;;;5.33;2.07;;;12.30;53.30;;;;;;5014034;28;20723;-52
2021/05/05 09:24:57;;;;;;;2.17;1.50;;;11.80;54.00;;;;;;5024418;28;20692;-53
2021/05/05 09:27:24;;;;;;;5.07;2.83;;;11.40;57.60;;;;;;5033901;28;20654;-52
2021/05/05 09:29:51;;;;;;;5.57;2.87;;;11.10;57.80;;;;;;5034325;28;20665;-51
2021/05/05 09:32:19;;;;;;;1.47;1.33;;;11.00;59.50;;;;;;5031828;28;20662;-51
2021/05/05 09:34:55;;;;;;;3.07;1.60;;;10.90;59.40;;;;;;5034232;28;20642;-51
2021/05/05 09:37:22;;;;;;;4.30;1.40;;;11.00;60.30;;;;;;5034001;28;20626;-53
2021/05/05 09:39:49;;;;;;;2.20;1.60;;;10.90;61.90;;;;;;5033621;28;20649;-51
2021/05/05 09:42:27;;;;;;;2.90;2.03;;;10.90;64.10;;;;;;5031967;28;20729;-52
2021/05/05 09:44:55;;;;;;;2.70;1.57;;;10.80;65.50;;;;;;5033786;28;20682;-53
2021/05/05 09:47:22;;;;;;;2.80;1.20;;;10.50;63.10;;;;;;5032828;28;20696;-54
2021/05/05 09:49:50;;;;;;;2.37;1.03;;;10.50;62.00;;;;;;5034420;28;20638;-54
2021/05/05 09:52:24;;;;;;;0.90;0.80;;;10.50;59.40;;;;;;5029999;28;21234;-54
2021/05/05 09:54:55;;;;;;;1.07;1.00;;;10.60;58.20;;;;;;5033190;28;21023;-54
2021/05/05 09:57:23;;;;;;;1.83;1.20;;;10.80;57.20;;;;;;5033504;28;21266;-54
2021/05/05 09:59:57;;;;;;;1.17;1.07;;;10.90;56.30;;;;;;5033299;28;21187;-53
2021/05/05 10:02:24;;;;;;;2.20;1.10;;;11.20;56.70;;;;;;5020446;28;21249;-53
2021/05/05 10:05:02;;;;;;;4.73;1.33;;;11.50;56.90;;;;;;5013610;28;21250;-53
2021/05/05 10:07:29;;;;;;;1.63;1.10;;;12.00;57.50;;;;;;5014552;28;20661;-52
2021/05/05 10:09:56;;;;;;;1.20;1.10;;;12.30;56.90;;;;;;5013182;28;20628;-53
2021/05/05 10:12:23;;;;;;;3.63;1.20;;;12.60;56.60;;;;;;5012469;28;20674;-52
2021/05/05 10:14:50;;;;;;;3.33;1.20;;;12.90;55.40;;;;;;5012784;28;21011;-53
2021/05/05 10:17:17;;;;;;;1.40;1.03;;;13.00;55.50;;;;;;5013387;28;20629;-53
2021/05/05 10:19:45;;;;;;;2.53;1.40;;;13.00;54.70;;;;;;5011724;28;20624;-54
2021/05/05 10:22:13;;;;;;;3.50;1.77;;;13.10;55.60;;;;;;5012904;28;20658;-53
2021/05/05 10:24:47;;;;;;;1.80;1.47;;;13.10;56.80;;;;;;5014377;28;20983;-53
2021/05/05 10:27:14;;;;;;;2.80;1.10;;;12.90;55.10;;;;;;5032574;28;20681;-51
2021/05/05 10:29:41;;;;;;;1.80;1.30;;;12.80;56.60;;;;;;5032703;28;20634;-53
2021/05/05 10:32:11;;;;;;;0.70;0.53;;;12.70;52.90;;;;;;5032513;28;21067;-53
2021/05/05 10:34:40;;;;;;;0.60;0.57;;;12.50;53.30;;;;;;5032393;28;20730;-52
2021/05/05 10:37:08;;;;;;;0.73;0.70;;;12.20;53.70;;;;;;5032525;28;21231;-54
2021/05/05 10:39:40;;;;;;;2.93;0.60;;;12.00;55.50;;;;;;5032319;28;20686;-52
2021/05/05 10:42:14;;;;;;;0.80;0.77;;;11.80;56.60;;;;;;5032464;28;20654;-53
2021/05/05 10:44:42;;;;;;;0.97;0.87;;;11.70;56.40;;;;;;5032678;28;20618;-53
2021/05/05 10:47:11;;;;;;;1.10;0.77;;;11.60;56.60;;;;;;5032509;28;20682;-53
2021/05/05 10:50:02;;;;;;;1.30;0.73;;;11.50;57.60;;;;;;5032217;28;20672;-54
2021/05/05 10:52:29;;;;;;;0.80;0.80;;;11.40;60.20;;;;;;5030981;28;20651;-53
2021/05/05 10:54:58;;;;;;;1.10;1.00;;;11.40;60.80;;;;;;5032285;28;20651;-53
2021/05/05 10:57:25;;;;;;;1.20;1.00;;;11.50;61.00;;;;;;5032405;28;21211;-53
2021/05/05 11:00:13;;;;;;;2.13;1.20;;;11.60;60.10;;;;;;5032171;28;20661;-53
2021/05/05 11:02:53;;;;;;;18.13;1.70;;;11.80;61.50;;;;;;5032600;28;21209;-54
2021/05/05 11:05:21;;;;;;;1.90;1.40;;;12.40;59.10;;;;;;5032169;28;20623;-53
2021/05/05 11:07:50;;;;;;;3.27;1.83;;;12.90;58.30;;;;;;5031948;28;21038;-54
2021/05/05 11:10:46;;;;;;;1.50;1.40;;;13.40;55.70;;;;;;5032260;28;20635;-55
2021/05/05 11:13:38;;;;;;;2.00;1.20;;;13.30;53.90;;;;;;5031947;28;20690;-55
2021/05/05 11:16:04;;;;;;;2.70;1.50;;;13.00;54.40;;;;;;5032695;28;20629;-54
2021/05/05 11:18:47;;;;;;;1.63;1.50;;;12.70;56.00;;;;;;5031637;28;20707;-52
2021/05/05 11:21:39;;;;;;;1.77;1.33;;;12.50;58.50;;;;;;5031765;28;20695;-53
2021/05/05 11:24:32;;;;;;;1.37;1.13;;;12.40;58.10;;;;;;5032084;28;20681;-52
2021/05/05 11:27:00;;;;;;;1.27;1.13;;;12.80;57.70;;;;;;5031328;28;20942;-53
2021/05/05 11:29:37;;;;;;;0.93;0.93;;;13.10;56.90;;;;;;5031619;28;20639;-53
2021/05/05 11:32:08;;;;;;;1.40;1.30;;;13.60;53.50;;;;;;5034182;28;20700;-54
2021/05/05 11:34:36;;;;;;;4.00;1.80;;;14.20;48.90;;;;;;5032867;28;20644;-54
2021/05/05 11:37:06;;;;;;;0.80;0.80;;;14.50;47.60;;;;;;5033204;28;20627;-53
2021/05/05 11:39:34;;;;;;;1.33;1.10;;;14.40;48.00;;;;;;5041548;28;20637;-54
2021/05/05 11:42:02;;;;;;;1.00;0.90;;;14.20;49.10;;;;;;5035048;28;20699;-53
2021/05/05 11:44:36;;;;;;;1.27;1.10;;;14.20;49.60;;;;;;5039288;28;21171;-53
2021/05/05 11:50:30;;;;;;;1.10;0.83;;;14.10;47.10;;;;;;5016941;28;20634;-54
2021/05/05 11:52:57;;;;;;;1.33;1.23;;;14.30;47.90;;;;;;5037959;28;20655;-54
2021/05/05 11:55:26;;;;;;;1.53;1.33;;;14.60;47.60;;;;;;5039800;28;21183;-54
2021/05/05 11:57:57;;;;;;;1.10;0.90;;;14.70;45.90;;;;;;5037078;28;20619;-56
2021/05/05 12:00:26;;;;;;;1.50;1.40;;;14.60;45.70;;;;;;5040164;28;20626;-55
2021/05/05 12:02:54;;;;;;;2.70;1.00;;;14.20;46.50;;;;;;5035843;28;20680;-55
2021/05/05 12:05:25;;;;;;;1.13;1.03;;;14.40;46.60;;;;;;5035904;28;20618;-55
2021/05/05 12:08:08;;;;;;;1.47;1.00;;;14.50;46.60;;;;;;5039663;28;20638;-54
2021/05/05 12:10:36;;;;;;;3.43;1.20;;;14.60;46.50;;;;;;5034044;28;20630;-52
2021/05/05 12:13:07;;;;;;;3.23;1.43;;;14.70;45.80;;;;;;5040257;28;20727;-53
2021/05/05 12:15:36;;;;;;;4.33;1.37;;;14.40;45.60;;;;;;5037422;28;20646;-52
2021/05/05 12:18:13;;;;;;;3.80;0.87;;;14.00;47.20;;;;;;5032279;28;20659;-52
2021/05/05 12:20:40;;;;;;;0.77;0.77;;;13.10;49.70;;;;;;5037557;28;20677;-53
2021/05/05 12:23:07;;;;;;;1.33;0.90;;;12.50;51.00;;;;;;5046406;28;21222;-52
2021/05/05 12:25:33;;;;;;;4.50;2.47;;;11.90;52.40;;;;;;5020243;28;20727;-53
2021/05/05 12:28:06;;;;;;;0.80;0.80;;;11.60;55.10;;;;;;5016076;28;20619;-52
2021/05/05 12:30:39;;;;;;;1.20;1.10;;;11.30;57.30;;;;;;5031584;28;20637;-53
2021/05/05 12:33:06;;;;;;;1.27;1.03;;;11.10;58.20;;;;;;5042729;28;20658;-51
2021/05/05 12:35:34;;;;;;;3.27;0.80;;;11.00;59.70;;;;;;5031217;28;20995;-53
2021/05/05 12:38:05;;;;;;;0.60;0.60;;;11.00;60.20;;;;;;5038606;28;20622;-53
2021/05/05 12:40:32;;;;;;;0.40;0.40;;;10.90;59.50;;;;;;5046004;28;20681;-51
2021/05/05 12:43:11;;;;;;;1.93;0.90;;;10.90;52.90;;;;;;5038052;28;20716;-53
2021/05/05 12:45:38;;;;;;;2.53;1.23;;;11.00;52.60;;;;;;5050798;28;20627;-55
2021/05/05 12:48:07;;;;;;;2.17;1.00;;;11.20;53.70;;;;;;5043331;28;20618;-54
2021/05/05 12:50:38;;;;;;;1.90;1.37;;;11.40;54.50;;;;;;5053166;28;20630;-54
2021/05/05 12:53:05;;;;;;;1.43;1.07;;;11.80;54.70;;;;;;5047099;28;21198;-54
2021/05/05 12:55:33;;;;;;;0.80;0.80;;;12.00;53.90;;;;;;5037670;28;21253;-54
2021/05/05 12:58:02;;;;;;;0.87;0.50;;;12.30;53.30;;;;;;5039677;28;20626;-55
2021/05/05 13:00:29;;;;;;;0.90;0.60;;;12.80;55.10;;;;;;5055022;28;20803;-54